createdAt,value
2022-08-18T00:01:11.248Z,3.55
2022-08-18T00:03:57.161Z,3.97
2022-08-18T00:06:30.385Z,3.35
2022-08-18T00:09:02.423Z,3.38
2022-08-18T00:11:41.364Z,3.60
2022-08-18T00:14:14.592Z,4.05
2022-08-18T00:16:51.060Z,3.70
2022-08-18T00:19:19.254Z,3.10
2022-08-18T00:21:47.473Z,3.33
2022-08-18T00:24:17.021Z,3.60
2022-08-18T00:26:46.945Z,3.45
2022-08-18T00:29:17.094Z,3.40
2022-08-18T00:31:45.321Z,3.58
2022-08-18T00:34:13.518Z,3.33
2022-08-18T00:36:41.640Z,3.72
2022-08-18T00:39:09.873Z,3.05
2022-08-18T00:41:39.457Z,3.10
2022-08-18T00:44:07.606Z,3.95
2022-08-18T00:46:38.060Z,3.15
2022-08-18T00:49:07.296Z,3.25
2022-08-18T00:51:40.976Z,3.60
2022-08-18T00:54:13.584Z,3.47
2022-08-18T00:56:46.812Z,3.50
2022-08-18T00:59:22.093Z,3.72
2022-08-18T01:01:52.956Z,3.05
2022-08-18T01:04:26.811Z,3.20
2022-08-18T01:06:58.549Z,3.40
2022-08-18T01:09:26.701Z,3.20
2022-08-18T01:11:56.483Z,3.30
2022-08-18T01:14:25.047Z,3.30
2022-08-18T01:17:10.650Z,3.20
2022-08-18T01:19:57.028Z,3.53
2022-08-18T01:22:30.221Z,3.17
2022-08-18T01:25:19.789Z,3.25
2022-08-18T01:27:48.161Z,3.03
2022-08-18T01:30:19.199Z,2.90
2022-08-18T01:32:47.327Z,2.80
2022-08-18T01:35:18.625Z,3.60
2022-08-18T01:37:46.763Z,3.00
2022-08-18T01:41:24.732Z,3.28
2022-08-18T01:43:06.187Z,3.03
2022-08-18T01:45:34.640Z,2.72
2022-08-18T01:48:04.946Z,3.47
2022-08-18T01:50:34.291Z,3.13
2022-08-18T01:53:05.285Z,2.88
2022-08-18T01:55:35.344Z,3.13
2022-08-18T01:58:03.994Z,2.92
2022-08-18T02:00:32.560Z,3.08
2022-08-18T02:03:02.682Z,2.90
2022-08-18T02:05:35.807Z,2.88
2022-08-18T02:08:04.881Z,2.88
2022-08-18T02:10:34.957Z,3.00
2022-08-18T02:13:03.442Z,2.75
2022-08-18T02:15:31.663Z,2.38
2022-08-18T02:17:59.856Z,2.63
2022-08-18T02:20:28.006Z,2.60
2022-08-18T02:22:56.168Z,2.85
2022-08-18T02:25:24.311Z,3.00
2022-08-18T02:27:53.909Z,3.00
2022-08-18T02:30:22.234Z,2.90
2022-08-18T02:32:50.744Z,2.70
2022-08-18T02:35:19.218Z,3.10
2022-08-18T02:37:48.317Z,2.60
2022-08-18T02:40:17.094Z,2.50
2022-08-18T02:42:45.900Z,2.58
2022-08-18T02:45:15.737Z,2.60
2022-08-18T02:47:45.019Z,2.70
2022-08-18T02:50:16.563Z,2.85
2022-08-18T02:52:44.703Z,2.55
2022-08-18T02:55:13.324Z,3.00
2022-08-18T02:57:44.432Z,2.38
2022-08-18T03:00:15.470Z,2.47
2022-08-18T03:02:49.147Z,2.60
2022-08-18T03:05:18.056Z,2.50
2022-08-18T03:07:46.832Z,2.40
2022-08-18T03:10:32.437Z,2.60
2022-08-18T03:13:01.869Z,2.38
2022-08-18T03:15:30.013Z,2.53
2022-08-18T03:17:59.730Z,2.47
2022-08-18T03:20:30.966Z,2.60
2022-08-18T03:23:05.565Z,3.22
2022-08-18T03:25:38.426Z,2.55
2022-08-18T03:28:07.033Z,2.20
2022-08-18T03:30:35.578Z,2.47
2022-08-18T03:33:05.169Z,2.20
2022-08-18T03:35:35.418Z,2.67
2022-08-18T03:38:03.659Z,2.38
2022-08-18T03:40:31.956Z,2.25
2022-08-18T03:43:02.210Z,2.42
2022-08-18T03:45:31.993Z,2.22
2022-08-18T03:48:00.777Z,1.93
2022-08-18T03:50:32.284Z,2.13
2022-08-18T03:53:00.485Z,2.70
2022-08-18T03:55:29.689Z,2.30
2022-08-18T03:58:02.932Z,2.40
2022-08-18T04:00:32.234Z,2.28
2022-08-18T04:03:03.590Z,2.63
2022-08-18T04:05:34.330Z,2.30
2022-08-18T04:08:03.449Z,2.40
2022-08-18T04:10:31.633Z,2.35
2022-08-18T04:12:59.787Z,2.42
2022-08-18T04:15:28.155Z,2.55
2022-08-18T04:18:04.179Z,2.63
2022-08-18T04:20:34.142Z,2.45
2022-08-18T04:23:02.771Z,2.47
2022-08-18T04:25:33.476Z,2.25
2022-08-18T04:28:03.682Z,2.50
2022-08-18T04:30:32.274Z,2.08
2022-08-18T04:33:02.698Z,2.50
2022-08-18T04:35:33.651Z,2.53
2022-08-18T04:38:01.820Z,3.00
2022-08-18T04:40:33.892Z,2.45
2022-08-18T04:43:02.777Z,2.53
2022-08-18T04:45:31.323Z,2.78
2022-08-18T04:47:59.516Z,2.40
2022-08-18T04:50:27.676Z,2.35
2022-08-18T04:53:14.745Z,2.60
2022-08-18T04:55:48.345Z,2.28
2022-08-18T04:58:17.311Z,2.60
2022-08-18T05:00:45.629Z,2.42
2022-08-18T05:03:14.676Z,2.17
2022-08-18T05:05:42.769Z,2.17
2022-08-18T05:08:12.503Z,2.30
2022-08-18T05:10:41.476Z,2.30
2022-08-18T05:13:09.841Z,2.25
2022-08-18T05:16:07.029Z,2.30
2022-08-18T05:18:28.480Z,2.35
2022-08-18T05:20:58.094Z,2.40
2022-08-18T05:23:30.331Z,2.58
2022-08-18T05:26:00.166Z,2.30
2022-08-18T05:31:00.384Z,2.17
2022-08-18T05:33:28.873Z,2.20
2022-08-18T05:36:04.943Z,2.20
2022-08-18T05:38:43.562Z,2.38
2022-08-18T05:41:15.208Z,2.45
2022-08-18T05:43:51.417Z,2.38
2022-08-18T05:46:22.089Z,2.53
2022-08-18T05:48:50.972Z,2.37
2022-08-18T05:51:27.625Z,2.50
2022-08-18T05:54:14.762Z,2.30
2022-08-18T05:56:50.299Z,2.17
2022-08-18T05:59:23.734Z,2.30
2022-08-18T06:01:59.856Z,2.10
2022-08-18T06:04:34.583Z,2.17
2022-08-18T06:07:08.264Z,2.50
2022-08-18T06:09:43.495Z,2.58
2022-08-18T06:12:20.672Z,2.72
2022-08-18T06:14:48.884Z,2.53
2022-08-18T06:17:43.817Z,2.63
2022-08-18T06:20:25.069Z,2.63
2022-08-18T06:23:01.876Z,3.20
2022-08-18T06:25:43.156Z,3.05
2022-08-18T06:28:15.981Z,2.90
2022-08-18T06:30:51.439Z,2.75
2022-08-18T06:33:40.399Z,2.88
2022-08-18T06:36:18.785Z,3.10
2022-08-18T06:38:58.477Z,3.00
2022-08-18T06:41:43.536Z,3.40
2022-08-18T06:44:15.008Z,3.60
2022-08-18T06:46:48.175Z,3.50
2022-08-18T06:49:24.318Z,2.67
2022-08-18T06:51:52.455Z,3.10
2022-08-18T06:54:30.617Z,3.45
2022-08-18T06:57:00.215Z,2.97
2022-08-18T06:59:30.576Z,3.03
2022-08-18T07:02:02.666Z,3.17
2022-08-18T07:04:43.061Z,2.78
2022-08-18T07:07:39.517Z,3.25
2022-08-18T07:10:35.198Z,4.00
2022-08-18T07:13:27.522Z,3.28
2022-08-18T07:15:57.473Z,3.05
2022-08-18T07:18:28.842Z,3.33
2022-08-18T07:20:59.633Z,3.80
2022-08-18T07:23:31.779Z,3.85
2022-08-18T07:26:15.716Z,3.63
2022-08-18T07:28:47.243Z,3.80
2022-08-18T07:31:27.521Z,3.60
2022-08-18T07:34:00.882Z,3.80
2022-08-18T07:36:35.963Z,3.40
2022-08-18T07:39:11.848Z,4.07
2022-08-18T07:41:45.684Z,3.28
2022-08-18T07:44:21.440Z,4.00
2022-08-18T07:47:01.162Z,3.65
2022-08-18T07:49:35.225Z,3.10
2022-08-18T07:52:23.221Z,2.65
2022-08-18T07:55:05.061Z,2.92
2022-08-18T07:57:44.960Z,2.80
2022-08-18T08:00:35.476Z,3.17
2022-08-18T08:03:26.873Z,2.92
2022-08-18T08:06:02.114Z,3.08
2022-08-18T08:08:35.669Z,3.00
2022-08-18T08:11:17.986Z,3.00
2022-08-18T08:13:59.897Z,3.40
2022-08-18T08:16:41.649Z,3.30
2022-08-18T08:19:56.750Z,3.17
2022-08-18T08:22:21.480Z,3.20
2022-08-18T08:25:02.456Z,3.40
2022-08-18T08:27:42.395Z,3.50
2022-08-18T08:30:14.240Z,3.37
2022-08-18T08:32:55.969Z,2.72
2022-08-18T08:35:49.426Z,3.78
2022-08-18T08:38:39.850Z,3.05
2022-08-18T08:41:14.528Z,3.28
2022-08-18T08:43:46.963Z,3.53
2022-08-18T08:46:20.062Z,3.13
2022-08-18T08:48:55.256Z,3.42
2022-08-18T08:51:35.103Z,3.22
2022-08-18T08:54:09.198Z,3.25
2022-08-18T08:56:44.694Z,2.95
2022-08-18T08:59:14.703Z,3.08
2022-08-18T09:01:53.111Z,2.67
2022-08-18T09:04:32.775Z,3.00
2022-08-18T09:07:14.807Z,3.17
2022-08-18T09:10:04.433Z,3.40
2022-08-18T09:12:49.311Z,2.72
2022-08-18T09:15:46.433Z,3.30
2022-08-18T09:18:34.212Z,2.60
2022-08-18T09:21:18.935Z,3.00
2022-08-18T09:23:49.447Z,3.38
2022-08-18T09:26:40.084Z,3.00
2022-08-18T09:29:18.365Z,2.47
2022-08-18T09:31:48.008Z,2.55
2022-08-18T09:34:31.782Z,2.17
2022-08-18T09:37:13.411Z,2.17
2022-08-18T09:40:12.643Z,2.33
2022-08-18T09:42:50.148Z,2.63
2022-08-18T09:45:57.505Z,1.98
2022-08-18T09:48:36.696Z,2.20
2022-08-18T09:54:29.155Z,1.70
2022-08-18T09:57:22.660Z,1.83
2022-08-18T10:00:28.298Z,1.67
2022-08-18T10:03:13.688Z,1.48
2022-08-18T10:06:15.537Z,1.80
2022-08-18T10:09:14.617Z,1.70
2022-08-18T10:12:16.890Z,2.00
2022-08-18T10:15:26.943Z,1.70
2022-08-18T10:18:15.871Z,1.70
2022-08-18T10:20:56.776Z,1.52
2022-08-18T10:24:08.078Z,1.73
2022-08-18T10:27:13.719Z,1.50
2022-08-18T10:29:49.263Z,1.33
2022-08-18T10:32:52.057Z,1.77
2022-08-18T10:35:58.422Z,1.45
2022-08-18T10:38:45.885Z,1.70
2022-08-18T10:41:24.913Z,1.38
2022-08-18T10:43:57.815Z,1.20
2022-08-18T10:49:25.960Z,1.20
2022-08-18T10:52:38.958Z,1.23
2022-08-18T10:55:49.128Z,1.00
2022-08-18T10:58:45.821Z,1.02
2022-08-18T11:01:31.045Z,1.08
2022-08-18T11:10:27.960Z,1.05
2022-08-18T11:13:01.532Z,0.93
2022-08-18T11:15:43.937Z,0.80
2022-08-18T11:18:31.473Z,0.70
2022-08-18T11:21:23.895Z,0.85
2022-08-18T11:24:05.218Z,1.13
2022-08-18T11:26:34.920Z,0.90
2022-08-18T11:29:03.156Z,0.40
2022-08-18T11:31:33.711Z,0.40
2022-08-18T11:34:16.351Z,0.50
2022-08-18T11:36:57.923Z,0.60
2022-08-18T11:42:25.029Z,0.45
2022-08-18T11:44:56.249Z,0.63
2022-08-18T11:47:28.086Z,0.47
2022-08-18T11:50:09.545Z,0.30
2022-08-18T11:52:53.931Z,1.08
2022-08-18T11:55:30.421Z,0.60
2022-08-18T11:58:01.309Z,0.40
2022-08-18T12:00:43.079Z,0.38
2022-08-18T12:03:19.166Z,0.35
2022-08-18T12:11:52.369Z,0.30
2022-08-18T12:14:32.667Z,0.93
2022-08-18T12:17:04.987Z,0.40
2022-08-18T12:19:35.412Z,0.43
2022-08-18T12:22:17.494Z,0.60
2022-08-18T12:24:48.385Z,0.45
2022-08-18T12:27:21.475Z,0.35
2022-08-18T12:29:50.611Z,0.50
2022-08-18T12:32:49.068Z,0.50
2022-08-18T12:35:11.401Z,0.70
2022-08-18T12:38:03.364Z,0.60
2022-08-18T12:43:21.388Z,0.60
2022-08-18T12:45:49.699Z,0.93
2022-08-18T12:48:17.913Z,0.80
2022-08-18T12:50:58.562Z,0.90
2022-08-18T12:53:58.347Z,0.85
2022-08-18T12:56:24.842Z,0.60
2022-08-18T12:58:54.102Z,0.70
2022-08-18T13:01:24.514Z,0.60
2022-08-18T13:04:11.352Z,1.10
2022-08-18T13:06:58.923Z,1.17
2022-08-18T13:09:35.575Z,0.80
2022-08-18T13:12:19.999Z,0.73
2022-08-18T13:14:49.905Z,0.82
2022-08-18T13:17:33.618Z,0.70
2022-08-18T13:20:05.721Z,0.70
2022-08-18T13:22:33.888Z,0.80
2022-08-18T13:25:07.245Z,0.73
2022-08-18T13:27:37.519Z,0.80
2022-08-18T13:30:29.465Z,0.52
2022-08-18T13:33:00.262Z,0.80
2022-08-18T13:35:35.515Z,0.60
2022-08-18T13:38:14.256Z,0.60
2022-08-18T13:40:51.567Z,0.90
2022-08-18T13:43:26.037Z,0.75
2022-08-18T13:45:56.082Z,0.88
2022-08-18T13:48:25.569Z,0.80
2022-08-18T13:50:55.816Z,0.70
2022-08-18T13:53:26.418Z,0.88
2022-08-18T13:55:59.293Z,0.77
2022-08-18T13:58:28.873Z,0.75
2022-08-18T14:01:22.676Z,0.75
2022-08-18T14:03:48.365Z,0.60
2022-08-18T14:06:22.194Z,0.75
2022-08-18T14:08:53.212Z,0.70
2022-08-18T14:11:33.369Z,0.80
2022-08-18T14:14:04.419Z,0.65
2022-08-18T14:16:33.538Z,0.75
2022-08-18T14:19:19.439Z,0.50
2022-08-18T14:22:11.233Z,0.85
2022-08-18T14:24:58.946Z,0.70
2022-08-18T14:27:34.804Z,0.90
2022-08-18T14:30:06.694Z,0.70
2022-08-18T14:32:36.158Z,0.90
2022-08-18T14:35:21.795Z,0.77
2022-08-18T14:37:56.264Z,1.08
2022-08-18T14:40:25.474Z,0.80
2022-08-18T14:42:56.823Z,0.80
2022-08-18T14:45:35.263Z,0.80
2022-08-18T14:48:06.552Z,1.00
2022-08-18T14:50:36.954Z,0.85
2022-08-18T14:53:05.357Z,1.10
2022-08-18T14:55:34.112Z,0.70
2022-08-18T14:58:03.948Z,0.75
2022-08-18T15:00:53.379Z,1.05
2022-08-18T15:03:28.372Z,0.90
2022-08-18T15:06:04.347Z,1.60
2022-08-18T15:08:34.304Z,1.02
2022-08-18T15:13:43.483Z,1.20
2022-08-18T15:16:13.889Z,1.23
2022-08-18T15:18:42.368Z,0.93
2022-08-18T15:21:35.783Z,1.55
2022-08-18T15:24:25.977Z,1.25
2022-08-18T15:26:58.228Z,1.27
2022-08-18T15:29:36.084Z,1.17
2022-08-18T15:32:10.378Z,1.27
2022-08-18T15:34:46.640Z,1.08
2022-08-18T15:37:19.786Z,1.15
2022-08-18T15:39:51.965Z,1.20
2022-08-18T15:42:25.006Z,1.13
2022-08-18T15:44:54.613Z,1.30
2022-08-18T15:47:25.148Z,1.30
2022-08-18T15:49:54.884Z,1.08
2022-08-18T15:52:24.585Z,1.00
2022-08-18T15:54:56.921Z,1.25
2022-08-18T15:57:39.806Z,1.40
2022-08-18T16:00:12.241Z,1.75
2022-08-18T16:02:44.526Z,1.60
2022-08-18T16:05:17.090Z,1.60
2022-08-18T16:07:46.012Z,1.20
2022-08-18T16:10:14.851Z,1.20
2022-08-18T16:12:45.905Z,1.20
2022-08-18T16:15:19.438Z,0.93
2022-08-18T16:17:48.252Z,1.20
2022-08-18T16:20:17.784Z,1.00
2022-08-18T16:22:45.984Z,1.08
2022-08-18T16:25:16.456Z,1.30
2022-08-18T16:27:45.303Z,1.00
2022-08-18T16:30:17.692Z,0.95
2022-08-18T16:32:47.213Z,1.00
2022-08-18T16:35:15.502Z,0.82
2022-08-18T16:37:44.363Z,0.90
2022-08-18T16:40:13.556Z,0.85
2022-08-18T16:42:41.945Z,0.75
2022-08-18T16:45:13.274Z,0.80
2022-08-18T16:50:13.550Z,0.85
2022-08-18T16:52:42.368Z,0.98
2022-08-18T16:55:12.168Z,0.98
2022-08-18T16:57:59.458Z,1.07
2022-08-18T17:00:45.943Z,1.08
2022-08-18T17:03:41.416Z,0.80
2022-08-18T17:06:12.150Z,0.82
2022-08-18T17:08:41.045Z,1.10
2022-08-18T17:11:11.483Z,0.82
2022-08-18T17:13:40.344Z,0.80
2022-08-18T17:16:09.202Z,0.93
2022-08-18T17:18:39.262Z,0.90
2022-08-18T17:21:10.203Z,1.42
2022-08-18T17:23:39.232Z,0.88
2022-08-18T17:26:10.450Z,1.17
2022-08-18T17:28:50.611Z,1.00
2022-08-18T17:31:22.627Z,1.10
2022-08-18T17:33:54.503Z,1.08
2022-08-18T17:36:29.307Z,0.90
2022-08-18T17:39:00.635Z,0.90
2022-08-18T17:41:29.560Z,0.88
2022-08-18T17:44:00.966Z,0.98
2022-08-18T17:46:38.963Z,1.13
2022-08-18T17:49:14.131Z,1.00
2022-08-18T17:51:45.713Z,1.17
2022-08-18T17:54:22.074Z,0.98
2022-08-18T17:56:54.829Z,1.00
2022-08-18T17:59:45.524Z,1.20
2022-08-18T18:02:29.163Z,1.02
2022-08-18T18:05:01.811Z,1.00
2022-08-18T18:07:33.849Z,1.02
2022-08-18T18:10:06.227Z,1.00
2022-08-18T18:12:36.341Z,1.42
2022-08-18T18:15:08.581Z,1.20
2022-08-18T18:17:39.179Z,0.98
2022-08-18T18:22:46.086Z,1.30
2022-08-18T18:25:30.319Z,1.42
2022-08-18T18:28:03.353Z,1.15
2022-08-18T18:30:32.861Z,1.42
2022-08-18T18:33:03.856Z,1.05
2022-08-18T18:35:50.053Z,0.95
2022-08-18T18:38:28.892Z,1.10
2022-08-18T18:41:00.629Z,0.82
2022-08-18T18:43:35.201Z,0.82
2022-08-18T18:46:29.876Z,1.38
2022-08-18T18:49:14.649Z,1.20
2022-08-18T18:52:03.877Z,0.93
2022-08-18T18:54:49.959Z,1.13
2022-08-18T18:57:32.000Z,0.98
2022-08-18T19:00:14.360Z,0.85
2022-08-18T19:03:03.726Z,0.80
2022-08-18T19:05:39.633Z,0.90
2022-08-18T19:08:33.113Z,1.10
2022-08-18T19:11:11.350Z,1.08
2022-08-18T19:13:43.131Z,0.75
2022-08-18T19:16:24.363Z,1.10
2022-08-18T19:19:35.348Z,0.95
2022-08-18T19:24:39.770Z,0.80
2022-08-18T19:27:11.824Z,1.00
2022-08-18T19:29:44.564Z,1.00
2022-08-18T19:32:16.738Z,0.90
2022-08-18T19:34:52.768Z,0.90
2022-08-18T19:37:32.347Z,0.82
2022-08-18T19:40:12.705Z,0.90
2022-08-18T19:42:47.977Z,1.00
2022-08-18T19:45:26.033Z,1.10
2022-08-18T19:48:01.784Z,1.08
2022-08-18T19:50:35.741Z,1.00
2022-08-18T19:53:33.077Z,1.20
2022-08-18T19:56:24.316Z,1.00
2022-08-18T19:59:23.894Z,0.95
2022-08-18T20:02:02.625Z,1.30
2022-08-18T20:04:47.644Z,1.10
2022-08-18T20:07:40.243Z,1.05
2022-08-18T20:10:38.411Z,1.20
2022-08-18T20:13:20.524Z,1.27
2022-08-18T20:16:14.998Z,1.33
2022-08-18T20:18:44.917Z,1.00
2022-08-18T20:21:41.972Z,1.10
2022-08-18T20:24:40.591Z,1.30
2022-08-18T20:27:32.865Z,1.00
2022-08-18T20:30:28.547Z,1.13
2022-08-18T20:33:16.519Z,1.10
2022-08-18T20:35:52.743Z,1.00
2022-08-18T20:38:29.766Z,1.42
2022-08-18T20:40:59.747Z,0.95
2022-08-18T20:43:31.564Z,1.37
2022-08-18T20:46:22.770Z,1.40
2022-08-18T20:49:09.656Z,1.30
2022-08-18T20:51:52.342Z,1.00
2022-08-18T20:54:34.580Z,1.00
2022-08-18T20:57:07.323Z,1.20
2022-08-18T20:59:39.302Z,1.25
2022-08-18T21:02:25.314Z,1.20
2022-08-18T21:04:56.382Z,1.00
2022-08-18T21:07:37.091Z,1.08
2022-08-18T21:10:13.616Z,1.20
2022-08-18T21:12:52.342Z,1.20
2022-08-18T21:15:24.119Z,0.93
2022-08-18T21:18:00.462Z,1.15
2022-08-18T21:20:29.723Z,1.23
2022-08-18T21:23:08.354Z,1.00
2022-08-18T21:25:36.969Z,1.25
2022-08-18T21:28:07.477Z,1.23
2022-08-18T21:30:35.719Z,1.10
2022-08-18T21:36:00.326Z,1.20
2022-08-18T21:38:32.511Z,1.25
2022-08-18T21:41:02.801Z,1.33
2022-08-18T21:43:49.291Z,1.17
2022-08-18T21:46:25.516Z,1.10
2022-08-18T21:48:56.190Z,1.23
2022-08-18T21:53:56.372Z,1.40
2022-08-18T21:56:30.973Z,1.30
2022-08-18T21:59:12.613Z,1.30
2022-08-18T22:01:49.401Z,1.13
2022-08-18T22:04:28.766Z,1.25
2022-08-18T22:07:00.419Z,1.40
2022-08-18T22:09:48.502Z,1.42
2022-08-18T22:12:44.263Z,1.00
2022-08-18T22:15:16.593Z,1.08
2022-08-18T22:17:53.252Z,1.10
2022-08-18T22:20:43.117Z,1.40
2022-08-18T22:23:56.339Z,1.20
2022-08-18T22:26:28.115Z,1.35
2022-08-18T22:29:02.598Z,1.35
2022-08-18T22:31:33.309Z,1.27
2022-08-18T22:36:35.873Z,1.10
2022-08-18T22:39:08.613Z,1.30
2022-08-18T22:41:37.450Z,1.30
2022-08-18T22:44:07.305Z,1.08
2022-08-18T22:46:36.362Z,1.50
2022-08-18T22:49:04.743Z,1.15
2022-08-18T22:51:36.223Z,1.27
2022-08-18T22:54:08.374Z,1.30
2022-08-18T22:56:37.991Z,1.20
2022-08-18T22:59:15.934Z,1.23
2022-08-18T23:01:49.483Z,1.17
2022-08-18T23:04:19.232Z,1.05
2022-08-18T23:06:51.809Z,1.50
2022-08-18T23:09:24.100Z,1.30
2022-08-18T23:11:53.956Z,1.20
2022-08-18T23:14:22.252Z,1.40
2022-08-18T23:16:51.002Z,1.17
2022-08-18T23:19:21.655Z,1.42
2022-08-18T23:24:22.472Z,1.15
2022-08-18T23:26:50.983Z,1.45
2022-08-18T23:29:19.966Z,1.55
2022-08-18T23:31:49.450Z,1.70
2022-08-18T23:34:19.241Z,1.20
2022-08-18T23:36:52.916Z,1.37
2022-08-18T23:39:22.841Z,1.15
2022-08-18T23:41:51.965Z,1.30
2022-08-18T23:44:20.329Z,1.30
2022-08-18T23:46:52.428Z,1.50
2022-08-18T23:49:20.887Z,1.30
2022-08-18T23:51:51.490Z,1.23
2022-08-18T23:54:23.308Z,1.30
2022-08-18T23:56:51.597Z,1.23
2022-08-18T23:59:21.741Z,1.45
